sensor_id;sensor_type;location;lat;lon;timestamp;pressure;altitude;pressure_sealevel;temperature;humidity
59073;BME280;44859;51.934;15.554;2022-09-17T00:01:46;98451.21;;;8.64;87.15
59073;BME280;44859;51.934;15.554;2022-09-17T00:04:17;98453.20;;;8.60;87.39
59073;BME280;44859;51.934;15.554;2022-09-17T00:06:45;98454.92;;;8.58;87.88
59073;BME280;44859;51.934;15.554;2022-09-17T00:09:14;98454.53;;;8.56;88.39
59073;BME280;44859;51.934;15.554;2022-09-17T00:11:43;98451.36;;;8.53;88.49
59073;BME280;44859;51.934;15.554;2022-09-17T00:14:15;98448.92;;;8.53;88.95
59073;BME280;44859;51.934;15.554;2022-09-17T00:16:46;98451.30;;;8.51;89.05
59073;BME280;44859;51.934;15.554;2022-09-17T00:19:19;98445.89;;;8.51;89.03
59073;BME280;44859;51.934;15.554;2022-09-17T00:21:48;98443.33;;;8.53;89.26
59073;BME280;44859;51.934;15.554;2022-09-17T00:24:19;98443.19;;;8.52;89.66
59073;BME280;44859;51.934;15.554;2022-09-17T00:26:49;98442.20;;;8.54;89.44
59073;BME280;44859;51.934;15.554;2022-09-17T00:29:17;98441.02;;;8.56;89.45
59073;BME280;44859;51.934;15.554;2022-09-17T00:31:45;98443.74;;;8.57;89.04
59073;BME280;44859;51.934;15.554;2022-09-17T00:34:14;98444.16;;;8.59;89.32
59073;BME280;44859;51.934;15.554;2022-09-17T00:36:44;98444.83;;;8.59;89.58
59073;BME280;44859;51.934;15.554;2022-09-17T00:39:13;98448.34;;;8.62;89.26
59073;BME280;44859;51.934;15.554;2022-09-17T00:41:43;98443.98;;;8.62;89.80
59073;BME280;44859;51.934;15.554;2022-09-17T00:44:44;98439.92;;;8.62;89.63
59073;BME280;44859;51.934;15.554;2022-09-17T00:47:17;98444.35;;;8.64;89.54
59073;BME280;44859;51.934;15.554;2022-09-17T00:49:48;98445.48;;;8.66;89.35
59073;BME280;44859;51.934;15.554;2022-09-17T00:52:20;98447.66;;;8.68;89.60
59073;BME280;44859;51.934;15.554;2022-09-17T00:55:05;98445.41;;;8.67;89.72
59073;BME280;44859;51.934;15.554;2022-09-17T00:57:35;98449.66;;;8.63;90.04
59073;BME280;44859;51.934;15.554;2022-09-17T01:00:05;98447.02;;;8.63;90.23
59073;BME280;44859;51.934;15.554;2022-09-17T01:02:35;98448.63;;;8.60;90.49
59073;BME280;44859;51.934;15.554;2022-09-17T01:05:05;98452.50;;;8.60;90.23
59073;BME280;44859;51.934;15.554;2022-09-17T01:10:33;98455.76;;;8.58;91.07
59073;BME280;44859;51.934;15.554;2022-09-17T01:16:20;98448.33;;;8.57;91.09
59073;BME280;44859;51.934;15.554;2022-09-17T01:21:59;98451.94;;;8.58;91.71
59073;BME280;44859;51.934;15.554;2022-09-17T01:25:05;98444.92;;;8.55;92.50
59073;BME280;44859;51.934;15.554;2022-09-17T01:39:09;98438.48;;;8.63;92.40
59073;BME280;44859;51.934;15.554;2022-09-17T01:41:44;98438.98;;;8.67;91.99
59073;BME280;44859;51.934;15.554;2022-09-17T01:47:22;98442.17;;;8.72;91.98
59073;BME280;44859;51.934;15.554;2022-09-17T01:50:00;98450.81;;;8.73;92.15
59073;BME280;44859;51.934;15.554;2022-09-17T01:52:32;98453.60;;;8.73;92.38
59073;BME280;44859;51.934;15.554;2022-09-17T01:55:09;98454.65;;;8.76;92.27
59073;BME280;44859;51.934;15.554;2022-09-17T02:00:11;98453.68;;;8.78;92.09
59073;BME280;44859;51.934;15.554;2022-09-17T02:03:01;98453.40;;;8.77;92.49
59073;BME280;44859;51.934;15.554;2022-09-17T02:05:38;98456.16;;;8.74;92.81
59073;BME280;44859;51.934;15.554;2022-09-17T02:08:12;98459.08;;;8.75;92.49
59073;BME280;44859;51.934;15.554;2022-09-17T02:10:45;98460.56;;;8.77;92.33
59073;BME280;44859;51.934;15.554;2022-09-17T02:13:23;98462.11;;;8.77;92.99
59073;BME280;44859;51.934;15.554;2022-09-17T02:16:04;98463.13;;;8.78;93.18
59073;BME280;44859;51.934;15.554;2022-09-17T02:18:48;98473.77;;;8.79;92.99
59073;BME280;44859;51.934;15.554;2022-09-17T02:24:18;98469.79;;;8.80;93.18
59073;BME280;44859;51.934;15.554;2022-09-17T02:27:02;98473.84;;;8.83;93.36
59073;BME280;44859;51.934;15.554;2022-09-17T02:29:35;98474.98;;;8.81;93.58
59073;BME280;44859;51.934;15.554;2022-09-17T02:32:05;98483.33;;;8.82;93.79
59073;BME280;44859;51.934;15.554;2022-09-17T02:34:33;98487.63;;;8.81;94.22
59073;BME280;44859;51.934;15.554;2022-09-17T02:37:02;98483.52;;;8.79;94.12
59073;BME280;44859;51.934;15.554;2022-09-17T02:39:32;98483.02;;;8.82;94.36
59073;BME280;44859;51.934;15.554;2022-09-17T02:54:04;98477.86;;;8.91;94.99
59073;BME280;44859;51.934;15.554;2022-09-17T02:59:19;98470.55;;;8.91;95.47
59073;BME280;44859;51.934;15.554;2022-09-17T03:02:15;98468.70;;;8.89;95.65
59073;BME280;44859;51.934;15.554;2022-09-17T03:04:48;98471.73;;;8.92;95.77
59073;BME280;44859;51.934;15.554;2022-09-17T03:07:18;98465.96;;;8.94;95.65
59073;BME280;44859;51.934;15.554;2022-09-17T03:09:50;98463.02;;;8.96;95.36
59073;BME280;44859;51.934;15.554;2022-09-17T03:12:27;98456.25;;;8.98;95.14
59073;BME280;44859;51.934;15.554;2022-09-17T03:14:58;98455.80;;;8.99;95.40
59073;BME280;44859;51.934;15.554;2022-09-17T03:17:27;98456.83;;;9.00;95.71
59073;BME280;44859;51.934;15.554;2022-09-17T03:19:58;98458.83;;;8.99;96.22
59073;BME280;44859;51.934;15.554;2022-09-17T03:22:26;98461.35;;;8.98;95.78
59073;BME280;44859;51.934;15.554;2022-09-17T03:24:55;98458.23;;;8.97;96.23
59073;BME280;44859;51.934;15.554;2022-09-17T03:27:24;98463.95;;;8.98;96.11
59073;BME280;44859;51.934;15.554;2022-09-17T03:29:55;98465.02;;;9.01;96.35
59073;BME280;44859;51.934;15.554;2022-09-17T03:32:23;98466.30;;;9.00;96.94
59073;BME280;44859;51.934;15.554;2022-09-17T03:34:52;98477.65;;;9.00;97.12
59073;BME280;44859;51.934;15.554;2022-09-17T03:37:21;98481.23;;;9.02;96.88
59073;BME280;44859;51.934;15.554;2022-09-17T03:39:49;98484.90;;;9.05;96.50
59073;BME280;44859;51.934;15.554;2022-09-17T03:42:18;98489.91;;;9.06;96.33
59073;BME280;44859;51.934;15.554;2022-09-17T03:44:46;98491.56;;;9.07;96.38
59073;BME280;44859;51.934;15.554;2022-09-17T03:47:15;98494.34;;;9.08;96.36
59073;BME280;44859;51.934;15.554;2022-09-17T03:49:46;98498.20;;;9.08;96.74
59073;BME280;44859;51.934;15.554;2022-09-17T03:52:20;98502.77;;;9.07;97.06
59073;BME280;44859;51.934;15.554;2022-09-17T03:54:58;98506.94;;;9.08;97.00
59073;BME280;44859;51.934;15.554;2022-09-17T03:57:27;98509.33;;;9.09;97.03
59073;BME280;44859;51.934;15.554;2022-09-17T03:59:55;98505.38;;;9.11;96.86
59073;BME280;44859;51.934;15.554;2022-09-17T04:02:24;98507.27;;;9.11;97.12
59073;BME280;44859;51.934;15.554;2022-09-17T04:04:52;98506.92;;;9.14;96.90
59073;BME280;44859;51.934;15.554;2022-09-17T04:07:32;98507.38;;;9.15;97.18
59073;BME280;44859;51.934;15.554;2022-09-17T04:10:01;98503.36;;;9.17;97.29
59073;BME280;44859;51.934;15.554;2022-09-17T04:12:32;98504.58;;;9.18;96.96
59073;BME280;44859;51.934;15.554;2022-09-17T04:15:00;98507.89;;;9.18;97.00
59073;BME280;44859;51.934;15.554;2022-09-17T04:17:31;98505.24;;;9.18;97.27
59073;BME280;44859;51.934;15.554;2022-09-17T04:19:59;98507.63;;;9.19;97.33
59073;BME280;44859;51.934;15.554;2022-09-17T04:22:31;98511.20;;;9.21;97.37
59073;BME280;44859;51.934;15.554;2022-09-17T04:24:59;98508.51;;;9.22;97.27
59073;BME280;44859;51.934;15.554;2022-09-17T04:27:29;98512.87;;;9.22;97.35
59073;BME280;44859;51.934;15.554;2022-09-17T04:30:03;98515.09;;;9.23;97.24
59073;BME280;44859;51.934;15.554;2022-09-17T04:32:42;98519.20;;;9.25;97.33
59073;BME280;44859;51.934;15.554;2022-09-17T04:35:11;98519.45;;;9.26;97.14
59073;BME280;44859;51.934;15.554;2022-09-17T04:37:40;98524.27;;;9.27;97.43
59073;BME280;44859;51.934;15.554;2022-09-17T04:40:11;98524.53;;;9.29;97.56
59073;BME280;44859;51.934;15.554;2022-09-17T04:42:42;98526.45;;;9.32;97.28
59073;BME280;44859;51.934;15.554;2022-09-17T04:45:11;98530.69;;;9.31;97.33
59073;BME280;44859;51.934;15.554;2022-09-17T04:47:39;98532.45;;;9.31;97.63
59073;BME280;44859;51.934;15.554;2022-09-17T04:50:08;98534.36;;;9.31;97.70
59073;BME280;44859;51.934;15.554;2022-09-17T04:52:41;98537.40;;;9.33;97.39
59073;BME280;44859;51.934;15.554;2022-09-17T04:55:12;98534.23;;;9.36;97.42
59073;BME280;44859;51.934;15.554;2022-09-17T04:57:49;98536.85;;;9.37;97.73
59073;BME280;44859;51.934;15.554;2022-09-17T05:00:22;98538.92;;;9.37;97.56
59073;BME280;44859;51.934;15.554;2022-09-17T05:02:53;98540.62;;;9.38;97.86
59073;BME280;44859;51.934;15.554;2022-09-17T05:05:25;98547.20;;;9.39;97.59
59073;BME280;44859;51.934;15.554;2022-09-17T05:07:56;98550.94;;;9.41;97.66
59073;BME280;44859;51.934;15.554;2022-09-17T05:10:26;98554.61;;;9.41;97.43
59073;BME280;44859;51.934;15.554;2022-09-17T05:12:58;98555.80;;;9.39;97.70
59073;BME280;44859;51.934;15.554;2022-09-17T05:15:29;98560.48;;;9.40;97.84
59073;BME280;44859;51.934;15.554;2022-09-17T05:17:58;98563.14;;;9.42;97.51
59073;BME280;44859;51.934;15.554;2022-09-17T05:20:29;98567.71;;;9.45;97.49
59073;BME280;44859;51.934;15.554;2022-09-17T05:22:57;98564.67;;;9.45;97.76
59073;BME280;44859;51.934;15.554;2022-09-17T05:25:28;98570.51;;;9.45;97.59
59073;BME280;44859;51.934;15.554;2022-09-17T05:27:58;98569.29;;;9.44;97.85
59073;BME280;44859;51.934;15.554;2022-09-17T05:30:35;98570.73;;;9.47;97.75
59073;BME280;44859;51.934;15.554;2022-09-17T05:33:05;98572.13;;;9.49;97.60
59073;BME280;44859;51.934;15.554;2022-09-17T05:35:34;98570.95;;;9.51;97.69
59073;BME280;44859;51.934;15.554;2022-09-17T05:38:04;98574.58;;;9.52;97.64
59073;BME280;44859;51.934;15.554;2022-09-17T05:40:39;98573.21;;;9.54;97.61
59073;BME280;44859;51.934;15.554;2022-09-17T05:43:08;98573.30;;;9.58;97.60
59073;BME280;44859;51.934;15.554;2022-09-17T05:45:37;98571.96;;;9.60;97.77
59073;BME280;44859;51.934;15.554;2022-09-17T05:48:08;98572.41;;;9.61;97.58
59073;BME280;44859;51.934;15.554;2022-09-17T05:50:36;98573.48;;;9.61;97.83
59073;BME280;44859;51.934;15.554;2022-09-17T05:53:07;98573.02;;;9.63;97.88
59073;BME280;44859;51.934;15.554;2022-09-17T05:55:38;98574.87;;;9.64;97.63
59073;BME280;44859;51.934;15.554;2022-09-17T05:58:10;98577.27;;;9.65;97.85
59073;BME280;44859;51.934;15.554;2022-09-17T06:00:39;98578.86;;;9.67;97.77
59073;BME280;44859;51.934;15.554;2022-09-17T06:03:10;98580.35;;;9.72;97.32
59073;BME280;44859;51.934;15.554;2022-09-17T06:05:39;98577.48;;;9.76;97.45
59073;BME280;44859;51.934;15.554;2022-09-17T06:08:08;98577.09;;;9.79;97.43
59073;BME280;44859;51.934;15.554;2022-09-17T06:10:40;98580.56;;;9.82;97.26
59073;BME280;44859;51.934;15.554;2022-09-17T06:13:08;98582.66;;;9.84;97.62
59073;BME280;44859;51.934;15.554;2022-09-17T06:15:36;98581.05;;;9.88;97.40
59073;BME280;44859;51.934;15.554;2022-09-17T06:18:04;98584.85;;;9.89;97.53
59073;BME280;44859;51.934;15.554;2022-09-17T06:20:33;98586.76;;;9.92;97.48
59073;BME280;44859;51.934;15.554;2022-09-17T06:23:01;98585.33;;;9.92;97.40
59073;BME280;44859;51.934;15.554;2022-09-17T06:25:29;98585.73;;;9.92;97.32
59073;BME280;44859;51.934;15.554;2022-09-17T06:28:01;98583.77;;;9.95;97.10
59073;BME280;44859;51.934;15.554;2022-09-17T06:30:29;98581.08;;;9.96;97.44
59073;BME280;44859;51.934;15.554;2022-09-17T06:32:58;98582.42;;;9.99;97.63
59073;BME280;44859;51.934;15.554;2022-09-17T06:35:27;98577.33;;;10.07;97.29
59073;BME280;44859;51.934;15.554;2022-09-17T06:37:55;98578.73;;;10.07;97.42
59073;BME280;44859;51.934;15.554;2022-09-17T06:40:23;98588.58;;;10.07;97.37
59073;BME280;44859;51.934;15.554;2022-09-17T06:42:56;98583.83;;;10.07;97.22
59073;BME280;44859;51.934;15.554;2022-09-17T06:45:26;98578.54;;;10.07;97.24
59073;BME280;44859;51.934;15.554;2022-09-17T06:47:55;98588.65;;;10.09;96.99
59073;BME280;44859;51.934;15.554;2022-09-17T06:50:23;98588.10;;;10.12;97.14
59073;BME280;44859;51.934;15.554;2022-09-17T06:52:53;98582.31;;;10.17;96.92
59073;BME280;44859;51.934;15.554;2022-09-17T06:55:22;98580.19;;;10.23;96.77
59073;BME280;44859;51.934;15.554;2022-09-17T06:57:51;98576.23;;;10.27;97.00
59073;BME280;44859;51.934;15.554;2022-09-17T07:00:20;98582.15;;;10.33;96.80
59073;BME280;44859;51.934;15.554;2022-09-17T07:02:59;98583.91;;;10.36;96.83
59073;BME280;44859;51.934;15.554;2022-09-17T07:05:29;98587.58;;;10.41;96.89
59073;BME280;44859;51.934;15.554;2022-09-17T07:08:02;98588.27;;;10.41;96.78
59073;BME280;44859;51.934;15.554;2022-09-17T07:10:31;98590.41;;;10.43;96.46
59073;BME280;44859;51.934;15.554;2022-09-17T07:12:59;98587.14;;;10.40;96.25
59073;BME280;44859;51.934;15.554;2022-09-17T07:15:28;98587.59;;;10.36;96.25
59073;BME280;44859;51.934;15.554;2022-09-17T07:17:56;98584.64;;;10.30;96.12
59073;BME280;44859;51.934;15.554;2022-09-17T07:20:25;98585.75;;;10.29;96.32
59073;BME280;44859;51.934;15.554;2022-09-17T07:22:57;98584.33;;;10.32;96.40
59073;BME280;44859;51.934;15.554;2022-09-17T07:25:26;98586.92;;;10.35;96.58
59073;BME280;44859;51.934;15.554;2022-09-17T07:27:54;98586.78;;;10.35;96.71
59073;BME280;44859;51.934;15.554;2022-09-17T07:30:23;98589.88;;;10.33;96.73
59073;BME280;44859;51.934;15.554;2022-09-17T07:32:52;98590.76;;;10.33;96.26
59073;BME280;44859;51.934;15.554;2022-09-17T07:35:20;98586.48;;;10.31;96.76
59073;BME280;44859;51.934;15.554;2022-09-17T07:37:48;98589.06;;;10.29;96.56
59073;BME280;44859;51.934;15.554;2022-09-17T07:40:17;98589.21;;;10.32;96.24
59073;BME280;44859;51.934;15.554;2022-09-17T07:42:45;98589.83;;;10.41;96.70
59073;BME280;44859;51.934;15.554;2022-09-17T07:45:13;98590.45;;;10.48;96.45
59073;BME280;44859;51.934;15.554;2022-09-17T07:47:41;98591.36;;;10.53;96.41
59073;BME280;44859;51.934;15.554;2022-09-17T07:50:11;98590.06;;;10.59;96.19
59073;BME280;44859;51.934;15.554;2022-09-17T07:52:45;98593.38;;;10.67;95.86
59073;BME280;44859;51.934;15.554;2022-09-17T07:55:14;98594.94;;;10.75;95.96
59073;BME280;44859;51.934;15.554;2022-09-17T07:57:42;98596.42;;;10.84;95.63
59073;BME280;44859;51.934;15.554;2022-09-17T08:00:12;98598.09;;;10.86;95.42
59073;BME280;44859;51.934;15.554;2022-09-17T08:02:41;98598.75;;;10.94;95.37
59073;BME280;44859;51.934;15.554;2022-09-17T08:05:11;98599.30;;;11.01;94.80
59073;BME280;44859;51.934;15.554;2022-09-17T08:07:39;98595.39;;;11.04;95.09
59073;BME280;44859;51.934;15.554;2022-09-17T08:10:08;98595.81;;;11.04;94.34
59073;BME280;44859;51.934;15.554;2022-09-17T08:12:36;98596.48;;;11.02;94.03
59073;BME280;44859;51.934;15.554;2022-09-17T08:15:05;98599.05;;;10.94;93.94
59073;BME280;44859;51.934;15.554;2022-09-17T08:17:33;98603.39;;;10.90;93.90
59073;BME280;44859;51.934;15.554;2022-09-17T08:20:01;98610.76;;;10.90;93.71
59073;BME280;44859;51.934;15.554;2022-09-17T08:22:29;98612.70;;;10.88;93.71
59073;BME280;44859;51.934;15.554;2022-09-17T08:24:58;98619.16;;;10.89;93.67
59073;BME280;44859;51.934;15.554;2022-09-17T08:27:29;98626.29;;;10.87;93.57
59073;BME280;44859;51.934;15.554;2022-09-17T08:29:57;98631.52;;;10.87;93.20
59073;BME280;44859;51.934;15.554;2022-09-17T08:32:28;98634.54;;;10.85;92.90
59073;BME280;44859;51.934;15.554;2022-09-17T08:34:57;98638.15;;;10.88;93.20
59073;BME280;44859;51.934;15.554;2022-09-17T08:37:27;98639.23;;;10.90;92.91
59073;BME280;44859;51.934;15.554;2022-09-17T08:39:56;98638.48;;;10.93;93.02
59073;BME280;44859;51.934;15.554;2022-09-17T08:42:38;98636.71;;;10.99;93.06
59073;BME280;44859;51.934;15.554;2022-09-17T08:45:11;98634.80;;;10.98;92.59
59073;BME280;44859;51.934;15.554;2022-09-17T08:47:46;98635.38;;;10.95;92.41
59073;BME280;44859;51.934;15.554;2022-09-17T08:50:26;98634.63;;;10.93;92.35
59073;BME280;44859;51.934;15.554;2022-09-17T08:53:13;98636.08;;;10.95;92.08
59073;BME280;44859;51.934;15.554;2022-09-17T08:56:00;98639.80;;;10.97;92.18
59073;BME280;44859;51.934;15.554;2022-09-17T09:07:05;98631.02;;;11.30;92.02
59073;BME280;44859;51.934;15.554;2022-09-17T09:09:53;98634.53;;;11.38;91.14
59073;BME280;44859;51.934;15.554;2022-09-17T09:12:25;98636.28;;;11.43;91.19
59073;BME280;44859;51.934;15.554;2022-09-17T09:17:50;98645.55;;;11.46;91.00
59073;BME280;44859;51.934;15.554;2022-09-17T09:20:35;98646.00;;;11.47;90.18
59073;BME280;44859;51.934;15.554;2022-09-17T09:23:34;98651.23;;;11.53;90.24
59073;BME280;44859;51.934;15.554;2022-09-17T09:26:16;98653.28;;;11.71;90.04
59073;BME280;44859;51.934;15.554;2022-09-17T09:34:31;98646.12;;;12.36;89.31
59073;BME280;44859;51.934;15.554;2022-09-17T09:37:15;98638.57;;;12.69;88.64
59073;BME280;44859;51.934;15.554;2022-09-17T09:39:47;98638.23;;;13.15;87.35
59073;BME280;44859;51.934;15.554;2022-09-17T09:42:30;98627.39;;;13.39;85.91
59073;BME280;44859;51.934;15.554;2022-09-17T09:45:11;98622.98;;;13.72;84.25
59073;BME280;44859;51.934;15.554;2022-09-17T09:50:32;98620.26;;;14.22;78.94
59073;BME280;44859;51.934;15.554;2022-09-17T09:53:56;98622.27;;;14.25;80.71
59073;BME280;44859;51.934;15.554;2022-09-17T09:59:10;98620.96;;;14.34;77.13
59073;BME280;44859;51.934;15.554;2022-09-17T10:01:41;98618.11;;;14.58;77.11
59073;BME280;44859;51.934;15.554;2022-09-17T10:06:45;98628.48;;;14.88;75.04
59073;BME280;44859;51.934;15.554;2022-09-17T10:09:16;98646.18;;;14.52;74.59
59073;BME280;44859;51.934;15.554;2022-09-17T10:12:15;98662.39;;;13.76;76.02
59073;BME280;44859;51.934;15.554;2022-09-17T10:14:47;98662.13;;;12.91;78.70
59073;BME280;44859;51.934;15.554;2022-09-17T10:17:25;98666.45;;;12.52;80.23
59073;BME280;44859;51.934;15.554;2022-09-17T10:22:39;98668.23;;;12.23;82.44
59073;BME280;44859;51.934;15.554;2022-09-17T10:25:40;98672.56;;;12.07;83.21
59073;BME280;44859;51.934;15.554;2022-09-17T10:28:31;98673.42;;;12.00;84.39
59073;BME280;44859;51.934;15.554;2022-09-17T10:31:04;98674.31;;;11.89;85.50
59073;BME280;44859;51.934;15.554;2022-09-17T10:33:58;98674.19;;;11.88;86.14
59073;BME280;44859;51.934;15.554;2022-09-17T10:42:13;98671.81;;;12.39;88.02
59073;BME280;44859;51.934;15.554;2022-09-17T10:44:56;98673.39;;;12.48;88.10
59073;BME280;44859;51.934;15.554;2022-09-17T10:47:33;98672.45;;;12.52;87.78
59073;BME280;44859;51.934;15.554;2022-09-17T10:50:04;98674.21;;;12.54;87.54
59073;BME280;44859;51.934;15.554;2022-09-17T10:52:37;98675.20;;;12.60;87.50
59073;BME280;44859;51.934;15.554;2022-09-17T11:03:52;98664.73;;;12.94;87.59
59073;BME280;44859;51.934;15.554;2022-09-17T11:06:38;98667.15;;;12.92;87.79
59073;BME280;44859;51.934;15.554;2022-09-17T11:20:02;98676.92;;;12.51;88.42
59073;BME280;44859;51.934;15.554;2022-09-17T11:25:50;98690.31;;;12.22;87.61
59073;BME280;44859;51.934;15.554;2022-09-17T11:34:28;98677.78;;;11.43;88.50
59073;BME280;44859;51.934;15.554;2022-09-17T11:37:18;98675.14;;;11.38;88.85
59073;BME280;44859;51.934;15.554;2022-09-17T11:39:53;98672.09;;;11.46;89.57
59073;BME280;44859;51.934;15.554;2022-09-17T11:42:41;98665.64;;;11.80;90.64
59073;BME280;44859;51.934;15.554;2022-09-17T11:45:25;98660.61;;;12.38;91.51
59073;BME280;44859;51.934;15.554;2022-09-17T11:48:16;98659.81;;;12.86;90.81
59073;BME280;44859;51.934;15.554;2022-09-17T11:50:51;98656.21;;;13.15;90.35
59073;BME280;44859;51.934;15.554;2022-09-17T11:53:33;98649.73;;;13.38;89.58
59073;BME280;44859;51.934;15.554;2022-09-17T11:56:22;98653.88;;;13.24;88.29
59073;BME280;44859;51.934;15.554;2022-09-17T11:59:09;98651.85;;;12.82;88.01
59073;BME280;44859;51.934;15.554;2022-09-17T12:07:53;98663.22;;;12.26;89.01
59073;BME280;44859;51.934;15.554;2022-09-17T12:10:34;98660.28;;;12.11;89.46
59073;BME280;44859;51.934;15.554;2022-09-17T12:15:43;98656.08;;;12.06;89.82
59073;BME280;44859;51.934;15.554;2022-09-17T12:18:29;98652.04;;;12.11;90.45
59073;BME280;44859;51.934;15.554;2022-09-17T12:21:03;98654.73;;;12.20;90.28
59073;BME280;44859;51.934;15.554;2022-09-17T12:23:39;98655.33;;;12.21;90.21
59073;BME280;44859;51.934;15.554;2022-09-17T12:26:28;98653.52;;;12.10;89.67
59073;BME280;44859;51.934;15.554;2022-09-17T12:29:17;98651.38;;;12.08;89.99
59073;BME280;44859;51.934;15.554;2022-09-17T12:37:10;98630.82;;;12.10;90.92
59073;BME280;44859;51.934;15.554;2022-09-17T12:39:52;98619.05;;;12.59;91.15
59073;BME280;44859;51.934;15.554;2022-09-17T12:45:20;98615.92;;;13.35;88.99
59073;BME280;44859;51.934;15.554;2022-09-17T12:48:12;98609.73;;;13.39;87.85
59073;BME280;44859;51.934;15.554;2022-09-17T12:50:56;98618.65;;;13.58;87.27
59073;BME280;44859;51.934;15.554;2022-09-17T12:53:34;98617.47;;;13.62;86.82
59073;BME280;44859;51.934;15.554;2022-09-17T12:56:32;98618.57;;;13.61;86.65
59073;BME280;44859;51.934;15.554;2022-09-17T12:59:10;98611.87;;;13.77;86.20
59073;BME280;44859;51.934;15.554;2022-09-17T13:01:53;98611.69;;;13.73;85.80
59073;BME280;44859;51.934;15.554;2022-09-17T13:07:51;98604.54;;;13.83;85.27
59073;BME280;44859;51.934;15.554;2022-09-17T13:19:59;98612.40;;;14.29;79.77
59073;BME280;44859;51.934;15.554;2022-09-17T13:22:31;98603.90;;;14.53;80.08
59073;BME280;44859;51.934;15.554;2022-09-17T13:25:09;98602.58;;;14.77;80.10
59073;BME280;44859;51.934;15.554;2022-09-17T13:27:41;98604.24;;;14.78;79.15
59073;BME280;44859;51.934;15.554;2022-09-17T13:30:11;98605.16;;;14.46;78.41
59073;BME280;44859;51.934;15.554;2022-09-17T13:42:57;98639.02;;;12.46;77.19
59073;BME280;44859;51.934;15.554;2022-09-17T13:48:28;98647.89;;;11.85;78.03
59073;BME280;44859;51.934;15.554;2022-09-17T13:54:06;98641.07;;;11.55;78.91
59073;BME280;44859;51.934;15.554;2022-09-17T13:56:38;98640.55;;;11.47;78.89
59073;BME280;44859;51.934;15.554;2022-09-17T13:59:14;98633.90;;;11.44;79.06
59073;BME280;44859;51.934;15.554;2022-09-17T14:02:01;98636.40;;;11.46;78.97
59073;BME280;44859;51.934;15.554;2022-09-17T14:04:50;98636.90;;;11.54;79.05
59073;BME280;44859;51.934;15.554;2022-09-17T14:09:58;98624.77;;;11.94;79.27
59073;BME280;44859;51.934;15.554;2022-09-17T14:23:45;98617.35;;;13.85;74.30
59073;BME280;44859;51.934;15.554;2022-09-17T14:29:02;98624.14;;;13.19;75.07
59073;BME280;44859;51.934;15.554;2022-09-17T14:31:35;98625.05;;;13.40;75.14
59073;BME280;44859;51.934;15.554;2022-09-17T14:34:05;98620.04;;;13.81;74.28
59073;BME280;44859;51.934;15.554;2022-09-17T14:36:41;98611.48;;;14.23;74.49
59073;BME280;44859;51.934;15.554;2022-09-17T14:39:16;98611.59;;;14.62;73.67
59073;BME280;44859;51.934;15.554;2022-09-17T14:41:48;98613.00;;;14.47;73.07
59073;BME280;44859;51.934;15.554;2022-09-17T14:44:20;98610.01;;;14.54;73.00
59073;BME280;44859;51.934;15.554;2022-09-17T14:49:51;98605.73;;;14.03;72.02
59073;BME280;44859;51.934;15.554;2022-09-17T14:52:28;98611.97;;;13.60;72.49
59073;BME280;44859;51.934;15.554;2022-09-17T14:55:23;98612.25;;;13.41;73.00
59073;BME280;44859;51.934;15.554;2022-09-17T14:57:58;98612.29;;;13.27;73.40
59073;BME280;44859;51.934;15.554;2022-09-17T15:00:36;98610.16;;;13.18;73.90
59073;BME280;44859;51.934;15.554;2022-09-17T15:03:05;98613.90;;;13.15;74.15
59073;BME280;44859;51.934;15.554;2022-09-17T15:05:35;98614.70;;;13.09;74.18
59073;BME280;44859;51.934;15.554;2022-09-17T15:13:35;98608.75;;;13.00;74.94
59073;BME280;44859;51.934;15.554;2022-09-17T15:16:22;98615.02;;;12.89;75.01
59073;BME280;44859;51.934;15.554;2022-09-17T15:18:55;98613.17;;;12.72;74.46
59073;BME280;44859;51.934;15.554;2022-09-17T15:21:43;98620.13;;;12.55;74.65
59073;BME280;44859;51.934;15.554;2022-09-17T15:24:46;98623.66;;;12.40;74.85
59073;BME280;44859;51.934;15.554;2022-09-17T15:27:28;98626.88;;;12.28;74.68
59073;BME280;44859;51.934;15.554;2022-09-17T15:30:18;98624.91;;;12.23;75.08
59073;BME280;44859;51.934;15.554;2022-09-17T15:33:00;98624.27;;;12.10;74.80
59073;BME280;44859;51.934;15.554;2022-09-17T15:35:31;98629.86;;;12.04;74.94
59073;BME280;44859;51.934;15.554;2022-09-17T15:38:02;98631.30;;;12.01;75.05
59073;BME280;44859;51.934;15.554;2022-09-17T15:40:53;98636.14;;;11.99;75.29
59073;BME280;44859;51.934;15.554;2022-09-17T15:43:37;98635.47;;;12.04;75.02
59073;BME280;44859;51.934;15.554;2022-09-17T15:46:26;98636.12;;;12.09;74.81
59073;BME280;44859;51.934;15.554;2022-09-17T15:48:59;98632.87;;;12.13;74.79
59073;BME280;44859;51.934;15.554;2022-09-17T15:51:32;98629.67;;;12.13;74.37
59073;BME280;44859;51.934;15.554;2022-09-17T15:54:04;98629.86;;;12.13;74.03
59073;BME280;44859;51.934;15.554;2022-09-17T15:56:35;98627.55;;;12.14;74.38
59073;BME280;44859;51.934;15.554;2022-09-17T15:59:24;98625.58;;;12.11;74.34
59073;BME280;44859;51.934;15.554;2022-09-17T16:01:56;98627.70;;;12.09;74.50
59073;BME280;44859;51.934;15.554;2022-09-17T16:04:27;98630.30;;;12.07;74.76
59073;BME280;44859;51.934;15.554;2022-09-17T16:09:41;98637.33;;;12.05;74.55
59073;BME280;44859;51.934;15.554;2022-09-17T16:12:12;98635.60;;;12.05;74.50
59073;BME280;44859;51.934;15.554;2022-09-17T16:14:42;98635.05;;;12.05;74.76
59073;BME280;44859;51.934;15.554;2022-09-17T16:17:54;98634.81;;;12.03;74.99
59073;BME280;44859;51.934;15.554;2022-09-17T16:20:20;98632.70;;;12.01;74.57
59073;BME280;44859;51.934;15.554;2022-09-17T16:22:51;98636.34;;;11.97;75.11
59073;BME280;44859;51.934;15.554;2022-09-17T16:25:24;98638.23;;;11.93;74.95
59073;BME280;44859;51.934;15.554;2022-09-17T16:28:02;98650.67;;;11.88;74.51
59073;BME280;44859;51.934;15.554;2022-09-17T16:30:30;98653.17;;;11.85;74.87
59073;BME280;44859;51.934;15.554;2022-09-17T16:32:59;98653.88;;;11.82;75.20